Townville, Pennsylvania
Current Conditions -  °F | °C
As of 6:11 AM on Friday 28 Nov 2014 (Local Time) from KGKJ Reporting Station
Light Snow Light Snow  
Wind Chill: 14°   Ceiling: 1400
Heat Index: 23°   Visibility: 7mi
Dew Point: 19°   Wind: 8mph
Humidity: 85%   Direction: 270°W
Pressure: 30.23"   Gusts: NA
Location:  41.68°N, 79.88°W
Report Text: KGKJ 281111Z AUTO 27007KT 7SM -SN FEW009 BKN014 OVC050 M05/M07 A3023 RMK AO2 P0000 T10501072 TSNO
Loading
Personal Weather Stations






























Interactive Weather Map New forecast layout! Learn more

10-Day Weather Forecast

Advertisements
Track Severe Weather on mobile